createdAt,value
2023-01-28T00:01:16.445Z,2.70
2023-01-28T00:03:43.021Z,3.37
2023-01-28T00:06:11.679Z,5.07
2023-01-28T00:08:38.261Z,2.37
2023-01-28T00:11:06.276Z,2.70
2023-01-28T00:13:34.154Z,4.93
2023-01-28T00:16:01.615Z,4.30
2023-01-28T00:18:29.032Z,3.07
2023-01-28T00:21:07.843Z,3.50
2023-01-28T00:23:35.427Z,3.77
2023-01-28T00:26:02.793Z,4.47
2023-01-28T00:28:29.420Z,3.07
2023-01-28T00:30:56.095Z,3.43
2023-01-28T00:33:25.937Z,2.53
2023-01-28T00:35:59.331Z,3.80
2023-01-28T00:38:25.770Z,2.93
2023-01-28T00:40:52.124Z,3.10
2023-01-28T00:43:18.546Z,3.27
2023-01-28T00:45:45.013Z,3.67
2023-01-28T00:48:11.459Z,4.40
2023-01-28T00:50:39.412Z,4.17
2023-01-28T00:53:05.785Z,1.63
2023-01-28T00:55:32.191Z,2.70
2023-01-28T00:57:58.521Z,3.23
2023-01-28T01:00:25.853Z,2.70
2023-01-28T01:02:52.333Z,3.07
2023-01-28T01:05:18.794Z,1.80
2023-01-28T01:07:45.241Z,4.33
2023-01-28T01:10:12.872Z,3.83
2023-01-28T01:12:39.450Z,2.87
2023-01-28T01:15:10.592Z,3.87
2023-01-28T01:17:41.078Z,4.03
2023-01-28T01:20:09.400Z,4.27
2023-01-28T01:22:36.600Z,2.53
2023-01-28T01:25:04.126Z,2.60
2023-01-28T01:27:31.438Z,2.47
2023-01-28T01:29:58.968Z,5.67
2023-01-28T01:32:25.777Z,4.07
2023-01-28T01:34:52.260Z,3.93
2023-01-28T01:37:18.677Z,4.67
2023-01-28T01:39:45.114Z,2.57
2023-01-28T01:42:12.858Z,3.33
2023-01-28T01:44:58.997Z,2.23
2023-01-28T01:47:36.333Z,2.83
2023-01-28T01:53:14.416Z,2.03
2023-01-28T01:55:43.058Z,3.57
2023-01-28T01:58:11.624Z,3.27
2023-01-28T02:00:39.326Z,2.10
2023-01-28T02:03:06.265Z,3.80
2023-01-28T02:05:32.786Z,2.17
2023-01-28T02:08:19.864Z,2.47
2023-01-28T02:10:47.422Z,2.17
2023-01-28T02:13:14.644Z,3.43
2023-01-28T02:15:41.263Z,2.40
2023-01-28T02:18:07.683Z,3.00
2023-01-28T02:20:49.377Z,3.27
2023-01-28T02:23:25.034Z,2.90
2023-01-28T02:25:59.686Z,2.80
2023-01-28T02:28:31.829Z,4.40
2023-01-28T02:31:07.714Z,4.80
2023-01-28T02:33:43.327Z,2.37
2023-01-28T02:36:14.551Z,2.90
2023-01-28T02:38:44.180Z,3.87
2023-01-28T02:41:12.927Z,2.50
2023-01-28T02:43:40.491Z,4.17
2023-01-28T02:46:54.612Z,3.50
2023-01-28T02:49:27.008Z,4.20
2023-01-28T02:52:11.617Z,3.83
2023-01-28T02:54:50.242Z,1.77
2023-01-28T02:57:24.816Z,2.10
2023-01-28T02:59:56.981Z,2.50
2023-01-28T03:02:27.068Z,4.17
2023-01-28T03:04:58.659Z,5.80
2023-01-28T03:07:27.159Z,2.23
2023-01-28T03:09:53.801Z,2.97
2023-01-28T03:12:40.383Z,3.30
2023-01-28T03:15:31.680Z,3.30
2023-01-28T03:18:20.318Z,2.63
2023-01-28T03:21:09.220Z,1.87
2023-01-28T03:24:06.721Z,2.43
2023-01-28T03:26:55.313Z,3.37
2023-01-28T03:29:42.065Z,2.87
2023-01-28T03:32:27.633Z,1.53
2023-01-28T03:35:13.068Z,1.47
2023-01-28T03:37:39.738Z,2.70
2023-01-28T03:40:07.279Z,1.73
2023-01-28T03:42:34.054Z,2.90
2023-01-28T03:45:01.866Z,3.57
2023-01-28T03:47:29.301Z,5.13
2023-01-28T03:49:56.453Z,3.37
2023-01-28T03:52:24.286Z,2.23
2023-01-28T03:54:52.788Z,2.30
2023-01-28T03:57:20.914Z,4.03
2023-01-28T03:59:49.820Z,2.10
2023-01-28T04:02:16.685Z,3.67
2023-01-28T04:04:43.320Z,2.93
2023-01-28T04:07:15.443Z,3.63
2023-01-28T04:09:42.209Z,4.60
2023-01-28T04:12:08.978Z,3.70
2023-01-28T04:14:35.764Z,3.17
2023-01-28T04:17:02.471Z,3.43
2023-01-28T04:19:28.902Z,10.43
2023-01-28T04:21:55.351Z,5.73
2023-01-28T04:24:22.642Z,6.13
2023-01-28T04:26:49.340Z,3.30
2023-01-28T04:29:15.759Z,4.03
2023-01-28T04:31:42.274Z,4.43
2023-01-28T04:34:09.361Z,4.73
2023-01-28T04:36:35.784Z,2.37
2023-01-28T04:39:02.203Z,6.13
2023-01-28T04:41:28.614Z,3.50
2023-01-28T04:43:55.085Z,3.67
2023-01-28T04:46:21.580Z,4.43
2023-01-28T04:48:48.012Z,4.47
2023-01-28T04:51:14.449Z,9.13
2023-01-28T04:53:40.826Z,3.73
2023-01-28T04:56:07.328Z,5.07
2023-01-28T04:58:33.767Z,5.10
2023-01-28T05:01:00.740Z,4.57
2023-01-28T05:03:27.421Z,29.93
2023-01-28T05:05:53.793Z,17.67
2023-01-28T05:08:20.216Z,4.33
2023-01-28T05:10:46.569Z,5.60
2023-01-28T05:13:13.003Z,6.23
2023-01-28T05:15:39.561Z,3.40
2023-01-28T05:18:06.092Z,4.80
2023-01-28T05:20:32.563Z,5.03
2023-01-28T05:22:59.014Z,6.13
2023-01-28T05:25:25.428Z,3.90
2023-01-28T05:27:52.102Z,7.13
2023-01-28T05:30:22.045Z,4.30
2023-01-28T05:32:48.523Z,3.73
2023-01-28T05:35:15.416Z,9.43
2023-01-28T05:37:42.051Z,3.07
2023-01-28T05:40:08.859Z,4.60
2023-01-28T05:42:35.222Z,5.67
2023-01-28T05:45:01.587Z,5.50
2023-01-28T05:47:27.984Z,8.00
2023-01-28T05:49:54.320Z,5.87
2023-01-28T05:52:20.747Z,4.43
2023-01-28T05:54:47.244Z,6.50
2023-01-28T05:57:13.724Z,6.03
2023-01-28T05:59:40.083Z,4.73
2023-01-28T06:02:06.494Z,7.70
2023-01-28T06:04:32.953Z,9.50
2023-01-28T06:06:59.308Z,4.57
2023-01-28T06:09:25.700Z,4.97
2023-01-28T06:11:52.133Z,4.97
2023-01-28T06:14:18.651Z,4.73
2023-01-28T06:16:45.089Z,5.17
2023-01-28T06:19:11.482Z,6.77
2023-01-28T06:21:38.072Z,7.20
2023-01-28T06:24:05.188Z,6.10
2023-01-28T06:26:31.615Z,7.37
2023-01-28T06:28:57.969Z,6.23
2023-01-28T06:31:24.312Z,6.30
2023-01-28T06:33:50.868Z,8.10
2023-01-28T06:36:20.047Z,7.07
2023-01-28T06:38:46.639Z,6.37
2023-01-28T06:41:13.054Z,8.30
2023-01-28T06:43:39.435Z,10.63
2023-01-28T06:46:05.787Z,9.83
2023-01-28T06:48:32.346Z,5.67
2023-01-28T06:50:58.718Z,7.07
2023-01-28T06:53:25.105Z,5.93
2023-01-28T06:55:51.499Z,6.87
2023-01-28T06:58:18.000Z,6.20
2023-01-28T07:00:44.411Z,7.27
2023-01-28T07:03:10.782Z,5.73
2023-01-28T07:05:37.226Z,6.20
2023-01-28T07:08:03.628Z,6.33
2023-01-28T07:10:30.451Z,10.27
2023-01-28T07:12:57.097Z,6.50
2023-01-28T07:15:23.582Z,8.63
2023-01-28T07:17:50.026Z,8.87
2023-01-28T07:20:17.792Z,6.40
2023-01-28T07:22:44.735Z,7.87
2023-01-28T07:25:12.044Z,7.93
2023-01-28T07:27:38.468Z,9.50
2023-01-28T07:30:05.116Z,8.87
2023-01-28T07:32:31.537Z,10.77
2023-01-28T07:34:58.777Z,36.07
2023-01-28T07:37:25.228Z,12.93
2023-01-28T07:39:52.257Z,10.70
2023-01-28T07:42:18.632Z,13.07
2023-01-28T07:44:45.076Z,12.67
2023-01-28T07:47:11.815Z,11.10
2023-01-28T07:49:39.868Z,13.10
2023-01-28T07:52:07.101Z,11.87
2023-01-28T07:54:33.587Z,10.07
2023-01-28T07:56:59.965Z,18.40
2023-01-28T07:59:26.372Z,39.90
2023-01-28T08:01:55.164Z,15.57
2023-01-28T08:04:21.878Z,10.60
2023-01-28T08:06:48.414Z,11.50
2023-01-28T08:09:14.924Z,12.63
2023-01-28T08:11:41.512Z,12.53
2023-01-28T08:14:07.944Z,13.63
2023-01-28T08:16:34.445Z,9.93
2023-01-28T08:19:00.873Z,11.27
2023-01-28T08:21:27.281Z,14.97
2023-01-28T08:23:54.677Z,11.77
2023-01-28T08:26:21.240Z,11.83
2023-01-28T08:28:49.532Z,11.37
2023-01-28T08:31:16.961Z,14.30
2023-01-28T08:33:43.381Z,12.13
2023-01-28T08:36:09.887Z,16.50
2023-01-28T08:38:36.305Z,12.67
2023-01-28T08:41:02.763Z,10.27
2023-01-28T08:43:29.171Z,11.57
2023-01-28T08:45:55.507Z,12.33
2023-01-28T08:48:21.988Z,12.67
2023-01-28T08:50:48.413Z,14.10
2023-01-28T08:53:16.093Z,10.70
2023-01-28T08:55:42.508Z,12.27
2023-01-28T08:58:12.961Z,9.80
2023-01-28T09:00:39.781Z,10.43
2023-01-28T09:03:06.682Z,11.43
2023-01-28T09:05:34.197Z,11.47
2023-01-28T09:08:04.811Z,12.80
2023-01-28T09:10:34.736Z,11.43
2023-01-28T09:13:21.540Z,11.40
2023-01-28T09:15:48.139Z,9.30
2023-01-28T09:18:14.620Z,9.43
2023-01-28T09:20:40.986Z,9.17
2023-01-28T09:23:07.432Z,9.73
2023-01-28T09:25:36.110Z,9.20
2023-01-28T09:28:03.254Z,9.03
2023-01-28T09:30:29.749Z,7.90
2023-01-28T09:32:58.199Z,7.37
2023-01-28T09:35:24.704Z,8.63
2023-01-28T09:37:52.115Z,8.87
2023-01-28T09:40:27.845Z,10.43
2023-01-28T09:43:01.771Z,7.57
2023-01-28T09:45:34.026Z,7.57
2023-01-28T09:48:01.712Z,6.70
2023-01-28T09:50:38.823Z,6.80
2023-01-28T09:53:09.002Z,6.50
2023-01-28T09:55:39.351Z,7.07
2023-01-28T09:58:23.655Z,5.90
2023-01-28T10:00:53.276Z,7.23
2023-01-28T10:03:41.139Z,8.90
2023-01-28T10:06:14.900Z,8.10
2023-01-28T10:09:05.652Z,8.47
2023-01-28T10:11:55.616Z,9.73
2023-01-28T10:14:31.387Z,11.40
2023-01-28T10:17:07.166Z,7.50
2023-01-28T10:19:37.986Z,7.53
2023-01-28T10:22:09.525Z,7.27
2023-01-28T10:24:38.353Z,7.63
2023-01-28T10:27:28.082Z,7.97
2023-01-28T10:29:55.535Z,7.13
2023-01-28T10:32:26.339Z,8.73
2023-01-28T10:34:53.110Z,8.10
2023-01-28T10:37:19.703Z,8.63
2023-01-28T10:39:46.352Z,5.33
2023-01-28T10:42:29.533Z,6.47
2023-01-28T10:45:22.044Z,7.23
2023-01-28T10:47:56.196Z,6.50
2023-01-28T10:50:23.881Z,7.67
2023-01-28T10:53:01.619Z,10.13
2023-01-28T10:55:30.289Z,10.67
2023-01-28T10:57:56.910Z,11.63
2023-01-28T11:00:25.801Z,8.30
2023-01-28T11:02:52.705Z,7.90
2023-01-28T11:05:25.824Z,9.90
2023-01-28T11:08:03.031Z,7.00
2023-01-28T11:10:32.381Z,7.53
2023-01-28T11:12:59.465Z,10.03
2023-01-28T11:15:26.336Z,11.30
2023-01-28T11:17:56.618Z,9.80
2023-01-28T11:20:25.625Z,11.97
2023-01-28T11:22:52.927Z,10.73
2023-01-28T11:25:27.994Z,14.77
2023-01-28T11:27:55.099Z,13.50
2023-01-28T11:30:26.457Z,12.17
2023-01-28T11:33:03.549Z,8.77
2023-01-28T11:35:31.089Z,16.10
2023-01-28T11:37:59.379Z,12.60
2023-01-28T11:40:26.705Z,11.37
2023-01-28T11:43:00.513Z,8.43
2023-01-28T11:45:39.888Z,13.53
2023-01-28T11:48:15.715Z,10.27
2023-01-28T11:50:42.036Z,11.27
2023-01-28T11:53:08.368Z,10.30
2023-01-28T11:55:53.398Z,8.13
2023-01-28T11:58:28.395Z,7.00
2023-01-28T12:01:12.528Z,13.50
2023-01-28T12:03:45.089Z,12.83
2023-01-28T12:06:17.570Z,11.67
2023-01-28T12:08:48.424Z,10.30
2023-01-28T12:11:20.925Z,9.57
2023-01-28T12:13:47.762Z,13.10
2023-01-28T12:16:17.310Z,11.57
2023-01-28T12:18:43.782Z,9.90
2023-01-28T12:21:21.255Z,14.73
2023-01-28T12:23:47.870Z,12.47
2023-01-28T12:26:35.731Z,12.17
2023-01-28T12:29:28.444Z,11.67
2023-01-28T12:32:08.241Z,13.10
2023-01-28T12:34:34.669Z,11.53
2023-01-28T12:37:19.339Z,14.73
2023-01-28T12:39:45.883Z,13.70
2023-01-28T12:42:15.449Z,13.53
2023-01-28T12:44:49.440Z,12.93
2023-01-28T12:47:32.354Z,10.43
2023-01-28T12:50:25.077Z,13.40
2023-01-28T12:52:57.793Z,10.63
2023-01-28T12:55:47.246Z,10.43
2023-01-28T12:58:19.022Z,13.77
2023-01-28T13:00:48.433Z,11.17
2023-01-28T13:03:30.654Z,11.13
2023-01-28T13:06:00.374Z,12.63
2023-01-28T13:08:28.054Z,12.83
2023-01-28T13:10:55.843Z,14.30
2023-01-28T13:13:31.121Z,14.67
2023-01-28T13:15:57.946Z,13.67
2023-01-28T13:18:33.424Z,16.30
2023-01-28T13:21:00.776Z,13.77
2023-01-28T13:23:38.097Z,14.10
2023-01-28T13:26:12.515Z,13.50
2023-01-28T13:28:38.960Z,15.73
2023-01-28T13:31:07.049Z,14.13
2023-01-28T13:33:37.936Z,15.23
2023-01-28T13:36:19.020Z,16.03
2023-01-28T13:38:46.010Z,13.03
2023-01-28T13:41:12.417Z,15.80
2023-01-28T13:43:40.525Z,14.67
2023-01-28T13:46:08.515Z,15.60
2023-01-28T13:48:40.866Z,13.87
2023-01-28T13:51:15.659Z,15.17
2023-01-28T13:53:45.865Z,16.27
2023-01-28T13:56:20.897Z,19.80
2023-01-28T13:59:05.694Z,16.73
2023-01-28T14:01:50.993Z,15.80
2023-01-28T14:04:17.410Z,15.00
2023-01-28T14:07:02.760Z,16.03
2023-01-28T14:09:49.428Z,18.07
2023-01-28T14:12:22.298Z,17.07
2023-01-28T14:14:48.997Z,21.00
2023-01-28T14:17:18.327Z,22.77
2023-01-28T14:19:45.333Z,19.90
2023-01-28T14:22:19.408Z,22.97
2023-01-28T14:24:46.020Z,24.43
2023-01-28T14:27:16.761Z,18.47
2023-01-28T14:30:02.044Z,18.90
2023-01-28T14:32:29.715Z,18.30
2023-01-28T14:34:58.233Z,19.03
2023-01-28T14:37:25.829Z,20.70
2023-01-28T14:39:53.414Z,19.97
2023-01-28T14:42:19.788Z,20.53
2023-01-28T14:44:46.682Z,18.07
2023-01-28T14:47:25.205Z,20.97
2023-01-28T14:50:07.580Z,20.73
2023-01-28T14:52:54.253Z,57.40
2023-01-28T14:55:35.985Z,20.60
2023-01-28T14:58:06.870Z,17.57
2023-01-28T15:00:34.189Z,19.90
2023-01-28T15:03:01.846Z,14.03
2023-01-28T15:05:29.152Z,14.23
2023-01-28T15:07:56.113Z,19.27
2023-01-28T15:10:33.036Z,17.67
2023-01-28T15:13:05.253Z,18.20
2023-01-28T15:15:35.110Z,17.40
2023-01-28T15:18:21.298Z,14.00
2023-01-28T15:20:48.541Z,21.10
2023-01-28T15:23:18.169Z,17.93
2023-01-28T15:25:45.113Z,17.93
2023-01-28T15:28:23.374Z,19.10
2023-01-28T15:30:49.875Z,18.77
2023-01-28T15:33:17.307Z,20.83
2023-01-28T15:35:51.039Z,18.43
2023-01-28T15:38:18.162Z,23.13
2023-01-28T15:40:46.667Z,20.23
2023-01-28T15:43:24.340Z,18.63
2023-01-28T15:45:56.129Z,19.23
2023-01-28T15:48:24.892Z,21.77
2023-01-28T15:51:04.845Z,22.67
2023-01-28T15:53:34.538Z,22.37
2023-01-28T15:56:05.439Z,19.70
2023-01-28T15:58:34.027Z,20.80
2023-01-28T16:01:12.034Z,17.37
2023-01-28T16:03:42.543Z,20.37
2023-01-28T16:06:17.570Z,22.60
2023-01-28T16:08:46.772Z,20.73
2023-01-28T16:11:13.607Z,19.77
2023-01-28T16:13:44.114Z,20.77
2023-01-28T16:16:11.608Z,18.13
2023-01-28T16:18:45.261Z,21.87
2023-01-28T16:21:12.783Z,18.57
2023-01-28T16:23:39.912Z,20.50
2023-01-28T16:26:23.766Z,21.93
2023-01-28T16:28:50.598Z,21.17
2023-01-28T16:31:17.541Z,20.60
2023-01-28T16:33:44.026Z,23.73
2023-01-28T16:36:11.733Z,20.40
2023-01-28T16:38:38.376Z,22.63
2023-01-28T16:41:04.891Z,18.87
2023-01-28T16:43:31.349Z,20.57
2023-01-28T16:45:57.830Z,19.73
2023-01-28T16:48:24.304Z,19.43
2023-01-28T16:50:50.713Z,20.43
2023-01-28T16:53:28.663Z,28.40
2023-01-28T16:55:55.577Z,21.70
2023-01-28T16:58:24.033Z,20.13
2023-01-28T17:00:50.445Z,22.70
2023-01-28T17:03:16.971Z,23.93
2023-01-28T17:05:43.402Z,27.73
2023-01-28T17:08:09.950Z,21.57
2023-01-28T17:10:36.551Z,21.47
2023-01-28T17:13:04.328Z,24.17
2023-01-28T17:15:30.715Z,24.23
2023-01-28T17:17:57.167Z,22.07
2023-01-28T17:20:23.644Z,26.07
2023-01-28T17:22:49.999Z,23.57
2023-01-28T17:25:17.032Z,24.63
2023-01-28T17:27:43.638Z,24.70
2023-01-28T17:30:10.579Z,26.33
2023-01-28T17:32:36.970Z,22.10
2023-01-28T17:35:03.464Z,25.10
2023-01-28T17:37:29.932Z,25.53
2023-01-28T17:39:56.378Z,23.07
2023-01-28T17:42:22.850Z,25.17
2023-01-28T17:44:49.196Z,28.10
2023-01-28T17:47:15.633Z,28.33
2023-01-28T17:49:42.063Z,28.20
2023-01-28T17:52:08.434Z,23.50
2023-01-28T17:54:35.467Z,26.97
2023-01-28T17:57:01.985Z,28.40
2023-01-28T17:59:28.493Z,29.90
2023-01-28T18:01:55.043Z,25.07
2023-01-28T18:04:21.483Z,25.73
2023-01-28T18:06:49.319Z,26.90
2023-01-28T18:09:15.808Z,25.17
2023-01-28T18:11:42.219Z,25.13
2023-01-28T18:14:08.860Z,27.53
2023-01-28T18:16:35.295Z,28.67
2023-01-28T18:19:01.703Z,23.53
2023-01-28T18:21:42.958Z,23.50
2023-01-28T18:24:17.472Z,24.53
2023-01-28T18:26:44.144Z,22.50
2023-01-28T18:29:16.622Z,24.67
2023-01-28T18:31:43.342Z,27.53
2023-01-28T18:34:09.852Z,25.63
2023-01-28T18:36:36.395Z,27.27
2023-01-28T18:39:02.815Z,28.60
2023-01-28T18:41:29.291Z,25.07
2023-01-28T18:43:55.788Z,23.30
2023-01-28T18:46:22.274Z,28.03
2023-01-28T18:48:48.734Z,26.33
2023-01-28T18:51:28.829Z,26.00
2023-01-28T18:54:00.740Z,23.07
2023-01-28T18:56:27.899Z,26.53
2023-01-28T18:58:57.908Z,26.57
2023-01-28T19:01:24.840Z,28.03
2023-01-28T19:03:51.348Z,25.60
2023-01-28T19:06:17.910Z,29.20
2023-01-28T19:08:44.352Z,25.33
2023-01-28T19:11:10.756Z,25.80
2023-01-28T19:13:37.276Z,23.53
2023-01-28T19:16:07.310Z,29.27
2023-01-28T19:18:33.734Z,23.20
2023-01-28T19:21:04.615Z,24.53
2023-01-28T19:23:38.034Z,23.70
2023-01-28T19:26:17.049Z,41.27
2023-01-28T19:28:43.439Z,25.87
2023-01-28T19:31:09.833Z,29.90
2023-01-28T19:33:36.176Z,24.20
2023-01-28T19:36:02.535Z,25.97
2023-01-28T19:38:29.100Z,30.17
2023-01-28T19:40:55.775Z,26.53
2023-01-28T19:43:22.386Z,29.03
2023-01-28T19:45:55.763Z,30.30
2023-01-28T19:48:22.256Z,33.77
2023-01-28T19:50:48.883Z,27.23
2023-01-28T19:53:17.777Z,33.27
2023-01-28T19:55:44.325Z,28.03
2023-01-28T19:58:11.709Z,37.73
2023-01-28T20:00:38.288Z,26.17
2023-01-28T20:03:08.305Z,28.93
2023-01-28T20:05:35.575Z,32.40
2023-01-28T20:08:02.136Z,31.80
2023-01-28T20:10:28.737Z,29.97
2023-01-28T20:12:55.137Z,28.40
2023-01-28T20:15:21.803Z,27.83
2023-01-28T20:17:48.256Z,28.33
2023-01-28T20:20:14.735Z,32.70
2023-01-28T20:22:41.623Z,27.60
2023-01-28T20:25:08.548Z,30.13
2023-01-28T20:27:35.058Z,27.70
2023-01-28T20:30:01.598Z,30.03
2023-01-28T20:32:28.071Z,26.23
2023-01-28T20:34:54.559Z,30.57
2023-01-28T20:37:21.080Z,27.50
2023-01-28T20:39:47.582Z,31.37
2023-01-28T20:42:14.183Z,29.47
2023-01-28T20:44:40.685Z,30.73
2023-01-28T20:47:07.133Z,30.33
2023-01-28T20:49:33.566Z,29.20
2023-01-28T20:52:00.136Z,29.13
2023-01-28T20:54:26.622Z,29.27
2023-01-28T20:56:53.134Z,25.33
2023-01-28T20:59:19.661Z,29.60
2023-01-28T21:01:46.264Z,26.83
2023-01-28T21:04:12.822Z,27.70
2023-01-28T21:06:41.965Z,31.90
2023-01-28T21:09:08.776Z,31.70
2023-01-28T21:11:35.219Z,24.47
2023-01-28T21:14:02.786Z,29.60
2023-01-28T21:16:29.382Z,26.63
2023-01-28T21:18:55.767Z,30.27
2023-01-28T21:21:25.821Z,31.20
2023-01-28T21:23:54.852Z,28.43
2023-01-28T21:26:21.817Z,29.00
2023-01-28T21:28:48.313Z,33.00
2023-01-28T21:31:16.204Z,29.13
2023-01-28T21:33:42.584Z,28.07
2023-01-28T21:36:10.234Z,28.13
2023-01-28T21:38:36.657Z,29.70
2023-01-28T21:41:04.147Z,28.23
2023-01-28T21:43:30.570Z,29.23
2023-01-28T21:45:57.732Z,28.60
2023-01-28T21:48:24.323Z,34.17
2023-01-28T21:51:09.394Z,28.63
2023-01-28T21:53:36.667Z,28.33
2023-01-28T21:56:06.424Z,30.93
2023-01-28T21:58:53.380Z,26.70
2023-01-28T22:01:19.842Z,30.90
2023-01-28T22:03:46.195Z,31.60
2023-01-28T22:06:12.538Z,31.40
2023-01-28T22:08:39.377Z,31.47
2023-01-28T22:11:07.189Z,31.03
2023-01-28T22:13:34.005Z,32.30
2023-01-28T22:16:01.017Z,31.13
2023-01-28T22:18:27.480Z,28.27
2023-01-28T22:20:57.929Z,26.30
2023-01-28T22:23:24.388Z,29.80
2023-01-28T22:25:51.045Z,29.60
2023-01-28T22:28:17.537Z,30.83
2023-01-28T22:30:43.955Z,29.77
2023-01-28T22:33:10.341Z,33.97
2023-01-28T22:35:36.814Z,31.03
2023-01-28T22:38:03.273Z,31.33
2023-01-28T22:40:29.805Z,31.77
2023-01-28T22:42:56.207Z,36.97
2023-01-28T22:45:22.594Z,34.23
2023-01-28T22:47:48.984Z,28.73
2023-01-28T22:50:15.712Z,32.27
2023-01-28T22:52:42.240Z,36.97
2023-01-28T22:55:09.053Z,28.63
2023-01-28T22:57:35.602Z,31.43
2023-01-28T23:00:02.476Z,29.37
2023-01-28T23:02:28.866Z,29.97
2023-01-28T23:04:55.259Z,33.97
2023-01-28T23:07:21.705Z,34.57
2023-01-28T23:09:48.095Z,31.77
2023-01-28T23:12:14.505Z,30.23
2023-01-28T23:15:03.112Z,32.93
2023-01-28T23:17:48.090Z,30.93
2023-01-28T23:20:34.729Z,30.60
2023-01-28T23:23:19.485Z,34.63
2023-01-28T23:25:45.952Z,30.00
2023-01-28T23:28:12.363Z,34.13
2023-01-28T23:30:38.894Z,32.50
2023-01-28T23:33:06.699Z,30.60
2023-01-28T23:35:33.162Z,32.77
2023-01-28T23:37:59.604Z,30.83
2023-01-28T23:40:27.213Z,30.60
2023-01-28T23:42:54.621Z,29.87
2023-01-28T23:45:21.603Z,30.43
2023-01-28T23:47:48.624Z,34.03
2023-01-28T23:50:15.855Z,35.17
2023-01-28T23:52:42.436Z,26.80
2023-01-28T23:55:08.894Z,32.43
2023-01-28T23:57:35.699Z,30.70
